Time;durP1;ratioP1;P1;durP2;ratioP2;P2;SDS_P1;SDS_P2;PMS_P1;PMS_P2;Temp;Humidity;BMP_temperature;BMP_pressure;BME280_temperature;BME280_humidity;BME280_pressure;Samples;Min_cycle;Max_cycle;Signal;HPM_P1;HPM_P2
2022/06/16 00:00:41;;;;;;;10.20;4.15;;;;;;;22.72;53.58;98377.50;5345693;26;20426;-80
2022/06/16 00:03:09;;;;;;;9.57;4.45;;;;;;;22.85;52.99;98385.19;5346360;26;20049;-80
2022/06/16 00:05:38;;;;;;;9.45;4.30;;;;;;;23.18;51.93;98376.13;5346337;26;20073;-80
2022/06/16 00:08:07;;;;;;;8.30;4.37;;;;;;;22.35;54.38;98377.22;5345850;26;20060;-80
2022/06/16 00:10:34;;;;;;;9.98;4.80;;;;;;;22.12;55.69;98381.00;5326226;26;20119;-80
2022/06/16 00:13:02;;;;;;;8.13;4.12;;;;;;;22.37;55.52;98380.56;5308259;26;20055;-80
2022/06/16 00:15:29;;;;;;;8.80;4.28;;;;;;;23.42;51.67;98382.78;5326053;26;20098;-80
2022/06/16 00:17:57;;;;;;;8.10;3.70;;;;;;;23.17;51.91;98379.69;5346098;26;20056;-80
2022/06/16 00:20:25;;;;;;;9.43;4.37;;;;;;;22.77;53.06;98377.94;5346043;26;20135;-80
2022/06/16 00:22:51;;;;;;;10.05;4.20;;;;;;;23.19;51.22;98372.53;5326188;26;20060;-80
2022/06/16 00:25:19;;;;;;;12.00;5.80;;;;;;;23.51;50.41;98372.25;5346189;26;20068;-80
2022/06/16 00:27:46;;;;;;;9.02;4.40;;;;;;;22.75;52.29;98369.34;5346177;26;20069;-80
2022/06/16 00:30:13;;;;;;;8.27;4.40;;;;;;;23.04;51.85;98361.53;5345381;26;20123;-80
2022/06/16 00:32:41;;;;;;;9.35;4.60;;;;;;;22.53;53.14;98359.84;5346222;26;20115;-80
2022/06/16 00:35:10;;;;;;;8.65;4.45;;;;;;;22.38;54.12;98355.09;5346041;26;20061;-80
2022/06/16 00:37:37;;;;;;;11.43;4.50;;;;;;;21.12;58.66;98345.50;5345658;26;20112;-80
2022/06/16 00:40:05;;;;;;;11.25;4.78;;;;;;;22.01;56.34;98339.84;5346003;26;20107;-80
2022/06/16 00:42:32;;;;;;;10.90;5.00;;;;;;;20.32;63.80;98338.69;5345614;26;20092;-80
2022/06/16 00:44:59;;;;;;;10.73;4.95;;;;;;;22.92;55.06;98338.13;5346180;26;20458;-80
2022/06/16 00:47:28;;;;;;;9.65;3.92;;;;;;;22.56;56.29;98335.09;5346186;26;20521;-80
2022/06/16 00:49:59;;;;;;;10.13;4.10;;;;;;;21.04;55.96;98328.56;5345566;26;20076;-80
2022/06/16 00:52:31;;;;;;;9.75;4.22;;;;;;;21.77;50.97;98334.81;5326528;26;20403;-80
2022/06/16 00:55:04;;;;;;;12.07;4.22;;;;;;;20.91;53.69;98333.16;5326494;26;20131;-80
2022/06/16 00:57:45;;;;;;;10.27;4.40;;;;;;;20.84;54.08;98333.75;5345624;26;20066;-80
2022/06/16 01:00:40;;;;;;;11.43;4.45;;;;;;;21.27;52.50;98336.41;5345741;26;20068;-80
2022/06/16 01:03:07;;;;;;;9.77;4.05;;;;;;;21.63;51.43;98330.75;5346102;26;20109;-80
2022/06/16 01:05:34;;;;;;;15.43;4.47;;;;;;;21.88;50.83;98334.75;5345569;26;20132;-80
2022/06/16 01:08:04;;;;;;;8.55;3.95;;;;;;;21.89;51.04;98332.97;5345902;26;20067;-80
2022/06/16 01:10:40;;;;;;;9.35;4.35;;;;;;;21.24;52.54;98326.13;5326647;26;20128;-80
2022/06/16 01:13:43;;;;;;;8.80;4.10;;;;;;;21.05;54.35;98327.62;5345899;26;20101;-80
2022/06/16 01:16:24;;;;;;;11.77;5.87;;;;;;;21.22;54.61;98322.78;5328258;26;20140;-80
2022/06/16 01:19:21;;;;;;;9.93;4.95;;;;;;;21.16;55.42;98324.13;5325970;26;20066;-80
2022/06/16 01:22:06;;;;;;;7.78;3.85;;;;;;;21.77;53.46;98328.75;5345844;26;20462;-80
2022/06/16 01:25:03;;;;;;;10.32;4.35;;;;;;;21.60;52.77;98328.38;5345980;26;20048;-80
2022/06/16 01:28:08;;;;;;;10.00;4.45;;;;;;;21.53;52.91;98331.63;5345757;26;20107;-80
2022/06/16 01:30:52;;;;;;;11.68;4.65;;;;;;;20.62;56.60;98329.38;5345704;26;20080;-80
2022/06/16 01:33:29;;;;;;;10.50;4.60;;;;;;;21.59;54.53;98334.59;5325717;26;20056;-80
2022/06/16 01:36:02;;;;;;;9.60;4.95;;;;;;;21.27;55.88;98336.41;5326274;26;20048;-80
2022/06/16 01:38:51;;;;;;;8.27;4.15;;;;;;;21.54;54.48;98335.91;5345553;26;20060;-80
2022/06/16 01:41:35;;;;;;;11.80;4.10;;;;;;;21.50;54.33;98342.41;5345598;26;20136;-80
2022/06/16 01:44:08;;;;;;;10.52;4.70;;;;;;;21.66;54.06;98330.47;5326609;26;20112;-80
2022/06/16 01:46:39;;;;;;;11.95;4.93;;;;;;;22.19;52.67;98334.81;5326809;26;20063;-79
2022/06/16 01:49:13;;;;;;;10.07;4.55;;;;;;;21.22;56.54;98331.50;5327123;26;20060;-80
2022/06/16 01:51:48;;;;;;;9.73;4.90;;;;;;;21.19;56.67;98329.13;5326968;26;20123;-80
2022/06/16 01:54:36;;;;;;;9.07;4.62;;;;;;;21.46;56.19;98326.03;5326611;26;20387;-80
2022/06/16 01:57:22;;;;;;;10.40;4.75;;;;;;;21.19;56.90;98317.81;5327173;26;20124;-79
2022/06/16 02:00:10;;;;;;;11.05;4.80;;;;;;;20.90;58.26;98315.75;5326778;26;20131;-80
2022/06/16 02:02:37;;;;;;;;;;;;;;;21.39;56.59;98318.81;5347144;26;20159;-79
2022/06/16 02:05:23;;;;;;;12.75;5.32;;;;;;;20.64;59.94;98315.22;5327043;26;20333;-80
2022/06/16 02:08:15;;;;;;;9.75;4.95;;;;;;;20.71;60.44;98312.94;5326475;26;20055;-80
2022/06/16 02:10:48;;;;;;;9.40;4.57;;;;;;;21.84;56.28;98319.41;5333977;26;20120;-80
2022/06/16 02:13:19;;;;;;;10.88;5.00;;;;;;;22.41;53.88;98325.91;5327181;26;20454;-80
2022/06/16 02:15:55;;;;;;;10.15;4.57;;;;;;;21.84;55.89;98317.59;5346310;26;20111;-80
2022/06/16 02:18:25;;;;;;;11.30;5.05;;;;;;;22.05;54.67;98316.75;5346620;26;20049;-80
2022/06/16 02:20:59;;;;;;;11.25;4.60;;;;;;;22.85;51.74;98319.41;5308047;26;20065;-80
2022/06/16 02:23:26;;;;;;;10.90;4.55;;;;;;;22.36;52.89;98317.59;5327097;26;20075;-80
2022/06/16 02:25:55;;;;;;;12.02;5.00;;;;;;;21.09;55.61;98320.34;5346562;26;20127;-80
2022/06/16 02:28:23;;;;;;;12.63;4.75;;;;;;;20.44;58.28;98315.97;5346143;26;20055;-80
2022/06/16 02:31:11;;;;;;;9.50;4.28;;;;;;;21.21;56.26;98323.75;5346410;26;20128;-80
2022/06/16 02:33:49;;;;;;;10.07;4.62;;;;;;;21.62;54.47;98317.75;5346771;26;20064;-80
2022/06/16 02:36:51;;;;;;;9.30;4.28;;;;;;;21.37;55.13;98327.66;5308335;26;20085;-80
2022/06/16 02:39:44;;;;;;;11.25;4.18;;;;;;;21.25;55.25;98317.28;5327569;26;20131;-80
2022/06/16 02:42:23;;;;;;;12.93;4.45;;;;;;;21.32;55.42;98321.12;5346386;26;20432;-80
2022/06/16 02:44:54;;;;;;;10.02;4.50;;;;;;;21.60;54.91;98317.88;5346688;26;20076;-80
2022/06/16 02:47:54;;;;;;;8.95;4.47;;;;;;;21.88;54.17;98323.41;5326797;26;20102;-80
2022/06/16 02:50:27;;;;;;;9.13;4.12;;;;;;;21.92;53.89;98323.03;5329053;26;20090;-80
2022/06/16 02:53:12;;;;;;;9.38;4.78;;;;;;;21.40;55.64;98325.75;5346524;26;20071;-80
2022/06/16 02:55:42;;;;;;;8.57;4.32;;;;;;;21.58;55.52;98321.56;5346530;26;20074;-80
2022/06/16 02:58:12;;;;;;;10.48;4.70;;;;;;;20.91;58.09;98317.41;5346121;26;20458;-80
2022/06/16 03:00:43;;;;;;;9.30;4.53;;;;;;;21.18;57.88;98326.63;5346321;26;20184;-80
2022/06/16 03:03:19;;;;;;;11.02;4.70;;;;;;;22.05;55.22;98335.12;5346237;26;20111;-80
2022/06/16 03:05:53;;;;;;;9.38;4.53;;;;;;;22.19;54.63;98329.56;5346674;26;20105;-80
2022/06/16 03:08:22;;;;;;;8.13;4.15;;;;;;;21.97;55.50;98324.44;5326709;26;20052;-80
2022/06/16 03:10:52;;;;;;;9.48;4.47;;;;;;;22.51;53.50;98327.59;5346063;26;20537;-80
2022/06/16 03:13:22;;;;;;;10.35;4.45;;;;;;;22.87;51.61;98330.66;5346356;26;20120;-79
2022/06/16 03:15:51;;;;;;;8.90;4.30;;;;;;;22.29;53.40;98333.06;5346508;26;20056;-80
2022/06/16 03:18:20;;;;;;;8.27;4.05;;;;;;;22.74;51.60;98337.91;5345967;26;20061;-80
2022/06/16 03:20:48;;;;;;;8.75;4.30;;;;;;;21.98;54.04;98331.34;5346435;26;20483;-80
2022/06/16 03:23:16;;;;;;;8.70;4.20;;;;;;;21.57;55.28;98326.00;5346392;26;20083;-80
2022/06/16 03:25:43;;;;;;;8.90;4.07;;;;;;;21.59;55.40;98325.88;5326536;26;20067;-80
2022/06/16 03:28:11;;;;;;;9.13;4.37;;;;;;;21.90;54.27;98332.00;5346327;26;20132;-80
2022/06/16 03:30:39;;;;;;;9.10;3.92;;;;;;;22.05;53.49;98325.47;5326529;26;20057;-80
2022/06/16 03:33:07;;;;;;;9.90;4.68;;;;;;;21.46;55.55;98330.47;5345998;26;20103;-80
2022/06/16 03:35:35;;;;;;;11.98;5.25;;;;;;;21.20;56.78;98338.66;5326775;26;20123;-80
2022/06/16 03:38:02;;;;;;;9.80;4.40;;;;;;;21.51;55.42;98333.56;5345814;26;20103;-80
2022/06/16 03:40:29;;;;;;;10.10;4.30;;;;;;;22.18;53.35;98333.97;5346129;26;20504;-80
2022/06/16 03:42:56;;;;;;;9.57;4.07;;;;;;;22.17;54.25;98342.00;5346068;26;20064;-80
2022/06/16 03:45:23;;;;;;;8.88;4.35;;;;;;;22.74;52.83;98340.53;5346066;26;20127;-80
2022/06/16 03:47:50;;;;;;;8.40;3.92;;;;;;;23.44;51.01;98342.19;5346323;26;20119;-80
2022/06/16 03:50:18;;;;;;;9.65;4.32;;;;;;;23.86;49.64;98339.25;5346286;26;20075;-80
2022/06/16 03:52:46;;;;;;;7.20;3.65;;;;;;;24.64;47.64;98342.47;5345941;26;20451;-80
2022/06/16 03:55:13;;;;;;;10.23;3.80;;;;;;;25.00;46.84;98346.00;5346358;26;20131;-80
2022/06/16 03:57:40;;;;;;;7.53;3.60;;;;;;;25.58;45.21;98343.75;5326557;26;20068;-80
2022/06/16 04:00:07;;;;;;;8.13;3.55;;;;;;;25.81;44.83;98344.12;5345803;26;20452;-80
2022/06/16 04:02:35;;;;;;;9.32;3.72;;;;;;;26.54;43.46;98346.37;5346206;26;20056;-80
2022/06/16 04:05:07;;;;;;;8.50;4.10;;;;;;;27.40;41.29;98351.44;5345817;26;20415;-80
2022/06/16 04:07:35;;;;;;;5.82;3.50;;;;;;;28.05;39.77;98343.47;5345789;26;20048;-80
2022/06/16 04:10:04;;;;;;;10.63;4.53;;;;;;;28.38;39.03;98351.38;5346227;26;20071;-80
2022/06/16 04:12:31;;;;;;;8.32;3.65;;;;;;;29.00;38.16;98348.78;5346324;26;20403;-81
2022/06/16 04:14:58;;;;;;;9.40;3.75;;;;;;;29.44;37.52;98348.97;5345912;26;20119;-81
2022/06/16 04:17:25;;;;;;;6.60;3.35;;;;;;;30.12;36.05;98353.44;5346110;26;20107;-81
2022/06/16 04:22:38;;;;;;;6.45;3.20;;;;;;;29.76;35.84;98358.56;5346271;26;20065;-81
2022/06/16 04:25:07;;;;;;;8.20;3.67;;;;;;;29.88;35.49;98350.97;5346319;26;20115;-81
2022/06/16 04:27:34;;;;;;;8.98;3.70;;;;;;;30.49;34.60;98343.69;5345615;26;20340;-81
2022/06/16 04:30:01;;;;;;;7.20;3.60;;;;;;;30.91;34.24;98348.34;5346173;26;20489;-81
2022/06/16 04:32:28;;;;;;;7.45;3.53;;;;;;;31.16;33.76;98343.50;5346242;26;20122;-81
2022/06/16 04:34:55;;;;;;;6.78;3.30;;;;;;;32.31;32.15;98348.59;5345968;26;20119;-81
2022/06/16 04:37:22;;;;;;;6.32;3.12;;;;;;;32.94;31.37;98340.50;5346369;26;20059;-81
2022/06/16 04:39:49;;;;;;;8.00;3.35;;;;;;;33.14;31.35;98340.53;5346181;26;20387;-81
2022/06/16 04:42:16;;;;;;;8.65;3.55;;;;;;;33.63;30.25;98340.22;5326259;26;20455;-81
2022/06/16 04:44:44;;;;;;;7.22;3.15;;;;;;;33.89;30.13;98339.41;5345834;26;20107;-81
2022/06/16 04:47:11;;;;;;;10.35;3.70;;;;;;;34.68;29.00;98336.56;5346180;26;20127;-81
2022/06/16 04:49:38;;;;;;;6.22;3.25;;;;;;;34.77;29.26;98340.66;5345409;26;20116;-81
2022/06/16 04:52:06;;;;;;;7.97;3.30;;;;;;;35.52;28.23;98346.25;5340590;26;147106;-81
2022/06/16 04:54:33;;;;;;;6.10;2.92;;;;;;;36.13;27.79;98340.13;5346039;26;20057;-81
2022/06/16 04:57:00;;;;;;;6.37;3.00;;;;;;;36.87;26.62;98349.06;5345786;26;20459;-81
2022/06/16 04:59:27;;;;;;;7.97;3.40;;;;;;;36.91;26.05;98352.13;5326116;26;20045;-81
2022/06/16 05:01:54;;;;;;;6.30;3.40;;;;;;;36.18;28.06;98350.25;5345919;26;20075;-81
2022/06/16 05:04:21;;;;;;;6.05;3.20;;;;;;;35.80;28.11;98347.66;5345683;26;20421;-80
2022/06/16 05:06:48;;;;;;;5.80;3.22;;;;;;;35.27;28.69;98346.16;5346100;26;20116;-81
2022/06/16 05:09:16;;;;;;;6.93;3.20;;;;;;;35.64;28.11;98352.56;5345439;26;20102;-81
2022/06/16 05:11:43;;;;;;;7.12;3.03;;;;;;;35.98;27.85;98347.75;5346005;26;20064;-81
2022/06/16 05:14:10;;;;;;;5.70;2.80;;;;;;;36.45;27.04;98342.72;5346036;26;20091;-81
2022/06/16 05:16:37;;;;;;;8.02;3.00;;;;;;;36.89;25.94;98352.34;5345638;26;20134;-81
2022/06/16 05:19:04;;;;;;;6.47;2.75;;;;;;;37.40;25.29;98345.66;5346793;26;20515;-81
2022/06/16 05:21:34;;;;;;;6.90;2.85;;;;;;;37.85;23.47;98351.34;5346690;26;20070;-81
2022/06/16 05:24:01;;;;;;;6.18;3.08;;;;;;;38.76;23.13;98349.88;5346458;26;20135;-81
2022/06/16 05:26:28;;;;;;;7.68;3.10;;;;;;;39.08;22.93;98354.00;5346888;26;20068;-82
2022/06/16 05:28:55;;;;;;;10.10;2.70;;;;;;;39.76;22.00;98353.03;5326963;26;20103;-82
2022/06/16 05:31:23;;;;;;;6.35;2.70;;;;;;;40.78;21.37;98351.78;5326585;26;20107;-81
2022/06/16 05:33:50;;;;;;;8.00;2.70;;;;;;;40.87;21.17;98356.53;5346833;26;20071;-82
2022/06/16 05:36:18;;;;;;;7.78;2.72;;;;;;;41.58;20.50;98351.84;5346841;26;20107;-81
2022/06/16 05:38:45;;;;;;;5.55;2.58;;;;;;;39.94;21.55;98351.97;5326324;26;20100;-81
2022/06/16 05:41:15;;;;;;;4.93;2.60;;;;;;;39.69;21.18;98345.13;5346493;26;20534;-81
2022/06/16 05:43:43;;;;;;;5.82;2.50;;;;;;;40.21;21.23;98352.94;5326854;26;20124;-81
2022/06/16 05:46:18;;;;;;;5.93;2.70;;;;;;;39.78;21.90;98343.66;5346292;26;20048;-81
2022/06/16 05:48:46;;;;;;;8.20;2.90;;;;;;;38.23;23.15;98343.88;5346500;26;20048;-81
2022/06/16 05:51:15;;;;;;;5.47;2.67;;;;;;;38.06;23.40;98344.56;5346679;26;20533;-81
2022/06/16 05:53:43;;;;;;;6.60;3.10;;;;;;;36.67;24.18;98343.09;5346658;26;20505;-81
2022/06/16 05:56:12;;;;;;;7.18;2.60;;;;;;;36.63;24.85;98341.91;5342157;26;20048;-81
2022/06/16 05:58:40;;;;;;;5.47;2.62;;;;;;;35.45;25.86;98331.22;5344400;26;20074;-81
2022/06/16 06:01:07;;;;;;;5.65;2.40;;;;;;;34.83;26.86;98335.47;5326135;26;20119;-81
2022/06/16 06:03:37;;;;;;;4.15;2.53;;;;;;;34.08;27.50;98327.88;5345798;26;20135;-81
2022/06/16 06:06:05;;;;;;;5.85;2.67;;;;;;;33.38;28.50;98327.44;5345223;26;20072;-81
2022/06/16 06:17:14;;;;;;;9.80;3.30;;;;;;;33.03;30.01;98336.59;5329217;26;20056;-81
2022/06/16 06:19:41;;;;;;;5.65;3.00;;;;;;;33.76;31.00;98332.19;5324537;26;20079;-81
2022/06/16 06:22:13;;;;;;;6.55;2.87;;;;;;;33.37;29.85;98330.31;5326077;26;20410;-82
2022/06/16 06:24:44;;;;;;;7.78;2.67;;;;;;;33.54;29.47;98336.09;5325876;26;20064;-81
2022/06/16 06:27:15;;;;;;;8.23;2.65;;;;;;;32.94;31.55;98333.28;5343404;26;20375;-81
2022/06/16 06:29:44;;;;;;;6.37;2.92;;;;;;;33.10;30.87;98334.78;5343584;26;20127;-81
2022/06/16 06:32:12;;;;;;;8.00;2.65;;;;;;;31.89;33.05;98328.19;5344164;26;20056;-82
2022/06/16 06:34:40;;;;;;;8.20;3.00;;;;;;;30.93;33.64;98324.16;5342963;26;20595;-82
2022/06/16 06:37:07;;;;;;;8.20;2.83;;;;;;;31.38;34.82;98331.87;5345326;26;20072;-82
2022/06/16 06:39:34;;;;;;;6.32;2.92;;;;;;;31.77;33.01;98337.75;5346406;26;20105;-82
2022/06/16 06:42:03;;;;;;;8.18;2.90;;;;;;;31.79;33.27;98341.84;5326562;26;20123;-82
2022/06/16 06:44:31;;;;;;;8.43;3.03;;;;;;;31.24;33.01;98340.72;5346462;26;20128;-82
2022/06/16 06:46:58;;;;;;;8.25;3.03;;;;;;;31.49;32.57;98340.37;5346583;26;20123;-82
2022/06/16 06:49:25;;;;;;;6.53;2.83;;;;;;;31.01;34.10;98340.06;5345664;26;20087;-81
2022/06/16 06:51:52;;;;;;;8.45;2.90;;;;;;;31.63;32.68;98348.28;5346544;26;20080;-82
2022/06/16 06:54:20;;;;;;;8.30;2.85;;;;;;;31.67;33.07;98346.03;5346527;26;20080;-82
2022/06/16 06:56:49;;;;;;;6.43;2.95;;;;;;;31.52;31.96;98347.97;5346173;26;20068;-82
2022/06/16 07:02:44;;;;;;;9.07;3.03;;;;;;;31.78;32.77;98347.37;5345533;26;20066;-82
2022/06/16 07:05:11;;;;;;;9.15;2.90;;;;;;;31.54;32.67;98343.28;5346568;26;20070;-82
2022/06/16 07:07:45;;;;;;;4.87;2.53;;;;;;;31.90;33.32;98349.38;5346433;26;20097;-82
2022/06/16 07:10:13;;;;;;;6.00;3.00;;;;;;;31.10;32.83;98345.06;5346076;26;20131;-82
2022/06/16 07:12:41;;;;;;;9.07;2.97;;;;;;;31.40;33.36;98344.19;5308709;26;20080;-81
2022/06/16 07:15:09;;;;;;;8.10;2.85;;;;;;;31.24;33.53;98343.41;5291891;26;20170;-82
2022/06/16 07:17:37;;;;;;;7.62;3.20;;;;;;;31.65;32.21;98345.41;5346219;26;20078;-82
2022/06/16 07:20:05;;;;;;;8.88;3.10;;;;;;;31.63;31.80;98342.94;5326477;26;20057;-83
2022/06/16 07:22:31;;;;;;;7.40;2.90;;;;;;;32.32;31.32;98344.09;5345706;26;20136;-82
2022/06/16 07:24:58;;;;;;;4.78;2.50;;;;;;;32.47;30.00;98340.28;5346505;26;20123;-82
2022/06/16 07:27:25;;;;;;;6.87;2.78;;;;;;;32.12;31.11;98344.78;5346261;26;20082;-83
2022/06/16 07:29:53;;;;;;;6.45;2.95;;;;;;;31.25;31.90;98341.56;5326030;26;20119;-83
2022/06/16 07:32:21;;;;;;;9.35;2.70;;;;;;;31.49;32.08;98343.03;5346257;26;20120;-83
2022/06/16 07:34:48;;;;;;;6.07;2.92;;;;;;;31.62;30.83;98335.12;5326574;26;20074;-83
2022/06/16 07:37:15;;;;;;;7.55;2.80;;;;;;;32.07;30.59;98328.53;5345871;26;20107;-83
2022/06/16 07:39:42;;;;;;;6.20;2.72;;;;;;;31.73;32.88;98336.47;5346081;26;20044;-83
2022/06/16 07:42:10;;;;;;;6.37;2.85;;;;;;;32.34;31.10;98328.72;5346209;26;20080;-83
2022/06/16 07:44:38;;;;;;;6.43;2.62;;;;;;;32.88;30.01;98320.75;5345690;26;20075;-83
2022/06/16 07:47:05;;;;;;;6.47;2.70;;;;;;;32.31;29.60;98327.25;5346134;26;20071;-82
2022/06/16 07:49:33;;;;;;;5.80;2.50;;;;;;;32.60;27.99;98334.19;5345993;26;20100;-83
2022/06/16 07:52:00;;;;;;;5.60;2.75;;;;;;;32.26;29.80;98332.34;5326252;26;20505;-83
2022/06/16 07:54:28;;;;;;;7.00;2.78;;;;;;;31.11;32.36;98329.91;5346313;26;20056;-83
2022/06/16 07:57:16;;;;;;;6.00;2.65;;;;;;;32.17;29.29;98328.16;5346111;26;20414;-83
2022/06/16 07:59:54;;;;;;;9.02;2.50;;;;;;;31.52;31.49;98330.13;5345867;26;20044;-83
2022/06/16 08:02:21;;;;;;;5.65;2.25;;;;;;;31.17;31.80;98333.69;5346007;26;20061;-83
2022/06/16 08:04:49;;;;;;;4.78;2.40;;;;;;;31.98;29.95;98328.88;5345979;26;20060;-82
2022/06/16 08:07:16;;;;;;;8.00;2.83;;;;;;;32.18;29.35;98335.16;5326567;26;20075;-83
2022/06/16 08:09:44;;;;;;;4.82;2.60;;;;;;;32.70;29.21;98347.16;5308298;26;20366;-83
2022/06/16 08:12:11;;;;;;;5.45;2.90;;;;;;;31.37;30.83;98343.53;5345644;26;20056;-82
2022/06/16 08:14:43;;;;;;;8.50;2.72;;;;;;;31.28;30.05;98339.34;5346374;26;20382;-82
2022/06/16 08:17:31;;;;;;;7.65;2.60;;;;;;;31.62;29.16;98337.81;5346429;26;20504;-82
2022/06/16 08:19:59;;;;;;;7.93;2.58;;;;;;;31.60;28.30;98330.00;5346010;26;20078;-82
2022/06/16 08:22:27;;;;;;;5.72;2.55;;;;;;;30.94;29.73;98334.63;5345846;26;20109;-83
2022/06/16 08:24:55;;;;;;;9.68;2.62;;;;;;;32.01;30.62;98336.47;5346144;26;20072;-83
2022/06/16 08:27:26;;;;;;;8.60;2.67;;;;;;;31.15;30.49;98331.16;5345788;26;20060;-83
2022/06/16 08:29:53;;;;;;;5.85;2.40;;;;;;;31.46;29.88;98327.41;5346207;26;20081;-83
2022/06/16 08:32:21;;;;;;;7.68;2.60;;;;;;;31.39;31.06;98324.69;5346122;26;20126;-82
2022/06/16 08:34:49;;;;;;;9.95;3.00;;;;;;;31.60;29.24;98324.66;5345982;26;20125;-81
2022/06/16 08:37:17;;;;;;;8.15;2.75;;;;;;;32.01;28.95;98332.00;5326324;26;20391;-82
2022/06/16 08:39:43;;;;;;;10.68;2.80;;;;;;;32.00;30.29;98343.66;5345660;26;20127;-83
2022/06/16 08:42:27;;;;;;;5.85;2.83;;;;;;;32.21;30.37;98345.44;5345976;26;20073;-82
2022/06/16 08:45:00;;;;;;;6.47;2.92;;;;;;;32.83;30.04;98343.75;5326262;26;20099;-81
2022/06/16 08:47:34;;;;;;;9.85;3.00;;;;;;;33.13;28.56;98342.41;5345740;26;20072;-82
2022/06/16 08:50:04;;;;;;;5.75;2.85;;;;;;;32.47;29.73;98348.28;5346098;26;20045;-82
2022/06/16 08:52:50;;;;;;;7.07;2.92;;;;;;;33.04;28.16;98344.41;5345634;26;20459;-82
2022/06/16 08:55:37;;;;;;;8.38;3.10;;;;;;;33.86;27.84;98339.81;5326147;26;20124;-82
2022/06/16 08:58:22;;;;;;;7.75;2.97;;;;;;;34.35;26.95;98336.66;5346028;26;20320;-82
2022/06/16 09:01:07;;;;;;;8.90;3.00;;;;;;;33.63;27.84;98348.25;5345508;26;20403;-81
2022/06/16 09:03:47;;;;;;;6.30;2.62;;;;;;;33.33;28.32;98350.47;5326886;26;20064;-81
2022/06/16 09:07:05;;;;;;;6.18;2.70;;;;;;;33.19;28.64;98343.44;5326260;26;20121;-81
2022/06/16 09:12:40;;;;;;;9.30;3.00;;;;;;;33.73;28.15;98331.78;5329145;26;20079;-81
2022/06/16 09:15:33;;;;;;;7.78;3.17;;;;;;;33.03;29.41;98329.41;5345794;26;20109;-81
2022/06/16 09:18:07;;;;;;;7.93;2.90;;;;;;;32.81;29.09;98336.72;5326115;26;20421;-81
2022/06/16 09:20:57;;;;;;;7.20;2.78;;;;;;;32.46;29.62;98337.81;5345966;26;20395;-80
2022/06/16 09:23:33;;;;;;;6.93;2.80;;;;;;;32.51;28.95;98338.84;5345535;26;20404;-81
2022/06/16 09:26:14;;;;;;;7.43;3.08;;;;;;;32.62;29.80;98334.78;5345968;26;20123;-81
2022/06/16 09:28:52;;;;;;;6.40;3.20;;;;;;;32.45;30.19;98339.66;5345994;26;20123;-81
2022/06/16 09:31:24;;;;;;;4.82;2.53;;;;;;;32.89;29.47;98341.09;5325844;26;20103;-81
2022/06/16 09:33:58;;;;;;;9.02;3.10;;;;;;;32.69;29.66;98349.00;5345861;26;20044;-82
2022/06/16 09:36:32;;;;;;;9.93;3.03;;;;;;;33.40;28.59;98340.63;5326004;26;20093;-81
2022/06/16 09:39:04;;;;;;;5.78;2.75;;;;;;;33.67;29.11;98338.78;5345846;26;20380;-81
2022/06/16 09:45:01;;;;;;;5.25;2.62;;;;;;;33.91;27.50;98326.66;5345223;26;20067;-81
2022/06/16 09:47:35;;;;;;;7.30;3.22;;;;;;;33.81;27.93;98332.37;5345507;26;20116;-81
2022/06/16 09:50:06;;;;;;;6.62;2.97;;;;;;;33.07;28.74;98335.16;5345269;26;20069;-80
2022/06/16 09:52:52;;;;;;;7.03;2.80;;;;;;;32.85;29.63;98329.16;5345570;26;20060;-81
2022/06/16 09:55:40;;;;;;;5.70;2.67;;;;;;;32.89;30.58;98329.59;5345841;26;20051;-81
2022/06/16 09:58:30;;;;;;;5.95;2.70;;;;;;;33.81;28.17;98327.03;5325303;26;20535;-81
2022/06/16 10:00:59;;;;;;;5.18;2.62;;;;;;;33.99;27.78;98330.97;5345354;26;20070;-81
2022/06/16 10:03:50;;;;;;;7.68;2.72;;;;;;;33.05;28.52;98335.38;5345626;26;20059;-79
2022/06/16 10:06:39;;;;;;;10.00;3.10;;;;;;;34.02;29.02;98339.37;5346793;26;20112;-81
2022/06/16 10:09:57;;;;;;;6.07;2.72;;;;;;;33.09;28.95;98341.97;5346573;26;20120;-81
2022/06/16 10:12:45;;;;;;;5.28;2.72;;;;;;;33.30;28.86;98340.19;5277182;27;20089;-80
2022/06/16 10:15:22;;;;;;;9.38;2.83;;;;;;;33.03;28.80;98326.75;5342968;26;20138;-80
2022/06/16 10:17:51;;;;;;;7.20;2.70;;;;;;;33.68;27.54;98327.03;5309135;26;20100;-80
2022/06/16 10:20:21;;;;;;;7.85;2.67;;;;;;;34.66;26.46;98329.75;5346500;26;20060;-80
2022/06/16 10:22:53;;;;;;;5.93;2.75;;;;;;;34.05;26.75;98333.66;5327014;26;20542;-80
2022/06/16 10:25:25;;;;;;;8.63;2.60;;;;;;;33.26;27.41;98336.25;5346505;26;20067;-81
2022/06/16 10:28:13;;;;;;;9.38;3.28;;;;;;;33.09;28.80;98333.97;5346657;26;20055;-82
2022/06/16 10:30:40;;;;;;;5.78;2.80;;;;;;;33.51;26.58;98332.00;5346714;26;20112;-82
2022/06/16 10:33:25;;;;;;;4.50;2.60;;;;;;;34.10;26.56;98324.97;5346265;26;20387;-82
2022/06/16 10:35:56;;;;;;;4.80;2.60;;;;;;;35.34;25.83;98322.81;5346510;26;20364;-82
2022/06/16 10:38:33;;;;;;;5.18;2.78;;;;;;;35.16;25.20;98321.91;5346422;26;20111;-82
2022/06/16 10:41:05;;;;;;;6.10;3.03;;;;;;;34.74;25.55;98316.94;5346015;26;20116;-82
2022/06/16 10:43:40;;;;;;;5.20;2.78;;;;;;;34.70;26.16;98305.03;5346452;26;20067;-82
2022/06/16 10:46:16;;;;;;;5.70;2.72;;;;;;;33.21;28.05;98306.63;5326469;26;20113;-82
2022/06/16 10:48:54;;;;;;;7.97;2.80;;;;;;;33.77;28.80;98306.25;5326608;26;20055;-82
2022/06/16 10:51:26;;;;;;;8.43;2.72;;;;;;;34.72;25.70;98304.81;5326578;26;20127;-82
2022/06/16 10:54:11;;;;;;;5.45;2.45;;;;;;;33.99;27.91;98290.81;5326437;26;20127;-82
2022/06/16 10:56:44;;;;;;;5.22;2.70;;;;;;;33.47;28.57;98289.81;5346586;26;20055;-82
2022/06/16 10:59:14;;;;;;;5.90;2.75;;;;;;;33.27;27.69;98279.88;5346460;26;20081;-81
2022/06/16 11:01:53;;;;;;;5.10;2.42;;;;;;;33.40;26.74;98284.47;5345939;26;20327;-82
2022/06/16 11:04:23;;;;;;;7.37;2.80;;;;;;;33.31;28.56;98275.78;5346577;26;20122;-82
2022/06/16 11:06:53;;;;;;;7.15;3.30;;;;;;;33.08;28.31;98278.84;5346636;26;20410;-82
2022/06/16 11:09:23;;;;;;;9.35;3.78;;;;;;;32.75;28.29;98277.91;5326126;26;20135;-82
2022/06/16 11:11:59;;;;;;;4.35;2.50;;;;;;;33.17;27.85;98274.12;5346378;26;20399;-82
2022/06/16 11:14:39;;;;;;;4.72;2.70;;;;;;;31.27;31.74;98270.25;5326221;26;20106;-82
2022/06/16 11:17:10;;;;;;;6.80;2.70;;;;;;;32.97;29.92;98263.41;5346572;26;20323;-82
2022/06/16 11:19:44;;;;;;;7.97;2.92;;;;;;;32.31;30.29;98270.34;5346575;26;20051;-82
2022/06/16 11:22:16;;;;;;;9.00;2.97;;;;;;;32.35;30.00;98266.28;5346414;26;20064;-83
2022/06/16 11:24:59;;;;;;;6.03;2.65;;;;;;;31.38;30.88;98259.06;5346899;26;20065;-82
2022/06/16 11:27:28;;;;;;;6.45;3.10;;;;;;;31.98;31.07;98260.31;5346448;26;20048;-82
2022/06/16 11:29:55;;;;;;;5.65;2.70;;;;;;;31.53;30.75;98248.28;5346311;26;20060;-81
2022/06/16 11:32:24;;;;;;;6.05;2.92;;;;;;;32.67;30.16;98251.41;5346396;26;20108;-81
2022/06/16 11:34:52;;;;;;;5.50;2.65;;;;;;;32.71;29.94;98249.97;5326692;26;20120;-81
2022/06/16 11:37:30;;;;;;;6.50;2.70;;;;;;;33.45;29.36;98249.88;5326845;26;20066;-82
2022/06/16 11:40:28;;;;;;;8.18;2.97;;;;;;;32.97;30.26;98243.88;5347179;26;20059;-82
2022/06/16 11:43:27;;;;;;;7.10;2.70;;;;;;;33.06;28.64;98251.47;5346872;26;20116;-81
2022/06/16 11:46:20;;;;;;;7.62;3.10;;;;;;;33.69;28.63;98255.63;5354466;26;20064;-82
2022/06/16 11:49:22;;;;;;;4.45;2.65;;;;;;;32.68;30.47;98256.53;5328451;26;20072;-84
2022/06/16 11:52:25;;;;;;;8.93;2.78;;;;;;;33.29;28.28;98260.97;5328918;26;20100;-83
2022/06/16 11:55:17;;;;;;;4.60;2.55;;;;;;;34.39;27.99;98270.13;5327109;26;20084;-84
2022/06/16 11:57:59;;;;;;;6.05;2.80;;;;;;;34.28;27.63;98270.75;5347261;26;20056;-83
2022/06/16 12:00:51;;;;;;;7.45;3.10;;;;;;;34.48;26.95;98268.84;5350283;26;20779;-82
2022/06/16 12:03:41;;;;;;;6.57;2.90;;;;;;;33.00;28.72;98255.00;5330858;26;20066;-82
2022/06/16 12:06:25;;;;;;;7.32;2.92;;;;;;;32.94;30.45;98257.63;5348876;26;20064;-83
2022/06/16 12:09:17;;;;;;;7.55;2.55;;;;;;;33.38;30.58;98251.72;5327467;26;20115;-83
2022/06/16 12:12:01;;;;;;;7.37;3.00;;;;;;;33.59;28.86;98248.84;5345968;26;20058;-83
2022/06/16 12:14:37;;;;;;;5.32;2.75;;;;;;;33.27;30.19;98252.31;5326941;26;20048;-83
2022/06/16 12:17:11;;;;;;;5.15;2.50;;;;;;;33.60;28.47;98242.50;5346639;26;20100;-83
2022/06/16 12:20:00;;;;;;;7.47;2.70;;;;;;;33.99;28.47;98245.31;5346247;26;20399;-83
2022/06/16 12:22:51;;;;;;;6.65;2.92;;;;;;;34.22;26.24;98241.09;5346026;26;20425;-82